sensor_id;sensor_type;location;lat;lon;timestamp;temperature;humidity
17701;DHT22;8969;48.576;12.580;2023-01-24T00:01:22;2.30;99.90
17701;DHT22;8969;48.576;12.580;2023-01-24T00:03:50;2.30;99.90
17701;DHT22;8969;48.576;12.580;2023-01-24T00:06:18;2.30;99.90
17701;DHT22;8969;48.576;12.580;2023-01-24T00:08:47;2.30;99.90
17701;DHT22;8969;48.576;12.580;2023-01-24T00:11:15;2.30;99.90
17701;DHT22;8969;48.576;12.580;2023-01-24T00:13:44;2.20;99.90
17701;DHT22;8969;48.576;12.580;2023-01-24T00:16:13;2.20;99.90
17701;DHT22;8969;48.576;12.580;2023-01-24T00:18:42;2.30;99.90
17701;DHT22;8969;48.576;12.580;2023-01-24T00:21:12;2.30;99.90
17701;DHT22;8969;48.576;12.580;2023-01-24T00:23:41;2.30;99.90
17701;DHT22;8969;48.576;12.580;2023-01-24T00:26:11;2.30;99.90
17701;DHT22;8969;48.576;12.580;2023-01-24T00:28:42;2.30;99.90
17701;DHT22;8969;48.576;12.580;2023-01-24T00:31:11;2.40;99.90
17701;DHT22;8969;48.576;12.580;2023-01-24T00:33:39;2.40;99.90
17701;DHT22;8969;48.576;12.580;2023-01-24T00:36:11;2.30;99.90
17701;DHT22;8969;48.576;12.580;2023-01-24T00:38:40;2.40;99.90
17701;DHT22;8969;48.576;12.580;2023-01-24T00:41:08;2.40;99.90
17701;DHT22;8969;48.576;12.580;2023-01-24T00:43:38;2.30;99.90
17701;DHT22;8969;48.576;12.580;2023-01-24T00:46:07;2.40;99.90
17701;DHT22;8969;48.576;12.580;2023-01-24T00:48:37;2.40;99.90
17701;DHT22;8969;48.576;12.580;2023-01-24T00:51:05;2.30;99.90
17701;DHT22;8969;48.576;12.580;2023-01-24T00:53:34;2.30;99.90
17701;DHT22;8969;48.576;12.580;2023-01-24T00:56:03;2.30;99.90
17701;DHT22;8969;48.576;12.580;2023-01-24T00:58:31;2.30;99.90
17701;DHT22;8969;48.576;12.580;2023-01-24T01:01:01;2.30;99.90
17701;DHT22;8969;48.576;12.580;2023-01-24T01:03:30;2.30;99.90
17701;DHT22;8969;48.576;12.580;2023-01-24T01:06:00;2.30;99.90
17701;DHT22;8969;48.576;12.580;2023-01-24T01:08:28;2.30;99.90
17701;DHT22;8969;48.576;12.580;2023-01-24T01:10:58;2.30;99.90
17701;DHT22;8969;48.576;12.580;2023-01-24T01:13:28;2.30;99.90
17701;DHT22;8969;48.576;12.580;2023-01-24T01:16:05;2.30;99.90
17701;DHT22;8969;48.576;12.580;2023-01-24T01:18:34;2.30;99.90
17701;DHT22;8969;48.576;12.580;2023-01-24T01:21:04;2.30;99.90
17701;DHT22;8969;48.576;12.580;2023-01-24T01:23:32;2.30;99.90
17701;DHT22;8969;48.576;12.580;2023-01-24T01:26:02;2.30;99.90
17701;DHT22;8969;48.576;12.580;2023-01-24T01:28:31;2.30;99.90
17701;DHT22;8969;48.576;12.580;2023-01-24T01:31:01;2.30;99.90
17701;DHT22;8969;48.576;12.580;2023-01-24T01:33:31;2.30;99.90
17701;DHT22;8969;48.576;12.580;2023-01-24T01:35:59;2.30;99.90
17701;DHT22;8969;48.576;12.580;2023-01-24T01:38:27;2.30;99.90
17701;DHT22;8969;48.576;12.580;2023-01-24T01:40:57;2.30;99.90
17701;DHT22;8969;48.576;12.580;2023-01-24T01:43:27;2.30;99.90
17701;DHT22;8969;48.576;12.580;2023-01-24T01:45:58;2.30;99.90
17701;DHT22;8969;48.576;12.580;2023-01-24T01:48:34;2.20;99.90
17701;DHT22;8969;48.576;12.580;2023-01-24T01:51:09;2.20;99.90
17701;DHT22;8969;48.576;12.580;2023-01-24T01:53:44;2.20;99.90
17701;DHT22;8969;48.576;12.580;2023-01-24T01:56:20;2.30;99.90
17701;DHT22;8969;48.576;12.580;2023-01-24T01:58:51;2.20;99.90
17701;DHT22;8969;48.576;12.580;2023-01-24T02:01:20;2.20;99.90
17701;DHT22;8969;48.576;12.580;2023-01-24T02:03:55;2.20;99.90
17701;DHT22;8969;48.576;12.580;2023-01-24T02:06:33;2.20;99.90
17701;DHT22;8969;48.576;12.580;2023-01-24T02:09:04;2.30;99.90
17701;DHT22;8969;48.576;12.580;2023-01-24T02:11:35;2.30;99.90
17701;DHT22;8969;48.576;12.580;2023-01-24T02:14:10;2.20;99.90
17701;DHT22;8969;48.576;12.580;2023-01-24T02:16:56;2.20;99.90
17701;DHT22;8969;48.576;12.580;2023-01-24T02:19:40;2.20;99.90
17701;DHT22;8969;48.576;12.580;2023-01-24T02:22:15;2.30;99.90
17701;DHT22;8969;48.576;12.580;2023-01-24T02:24:53;2.30;99.90
17701;DHT22;8969;48.576;12.580;2023-01-24T02:27:26;2.20;99.90
17701;DHT22;8969;48.576;12.580;2023-01-24T02:29:56;2.30;99.90
17701;DHT22;8969;48.576;12.580;2023-01-24T02:32:25;2.30;99.90
17701;DHT22;8969;48.576;12.580;2023-01-24T02:34:53;2.20;99.90
17701;DHT22;8969;48.576;12.580;2023-01-24T02:37:24;2.20;99.90
17701;DHT22;8969;48.576;12.580;2023-01-24T02:39:57;2.20;99.90
17701;DHT22;8969;48.576;12.580;2023-01-24T02:42:33;2.20;99.90
17701;DHT22;8969;48.576;12.580;2023-01-24T02:45:07;2.20;99.90
17701;DHT22;8969;48.576;12.580;2023-01-24T02:47:40;2.20;99.90
17701;DHT22;8969;48.576;12.580;2023-01-24T02:50:09;2.10;99.90
17701;DHT22;8969;48.576;12.580;2023-01-24T02:52:38;2.20;99.90
17701;DHT22;8969;48.576;12.580;2023-01-24T02:55:23;2.20;99.90
17701;DHT22;8969;48.576;12.580;2023-01-24T02:57:56;2.20;99.90
17701;DHT22;8969;48.576;12.580;2023-01-24T03:00:39;2.20;99.90
17701;DHT22;8969;48.576;12.580;2023-01-24T03:03:10;2.20;99.90
17701;DHT22;8969;48.576;12.580;2023-01-24T03:05:38;2.20;99.90
17701;DHT22;8969;48.576;12.580;2023-01-24T03:08:33;2.20;99.90
17701;DHT22;8969;48.576;12.580;2023-01-24T03:11:06;2.20;99.90
17701;DHT22;8969;48.576;12.580;2023-01-24T03:13:37;2.20;99.90
17701;DHT22;8969;48.576;12.580;2023-01-24T03:16:24;2.20;99.90
17701;DHT22;8969;48.576;12.580;2023-01-24T03:19:10;2.20;99.90
17701;DHT22;8969;48.576;12.580;2023-01-24T03:21:57;2.20;99.90
17701;DHT22;8969;48.576;12.580;2023-01-24T03:24:42;2.20;99.90
17701;DHT22;8969;48.576;12.580;2023-01-24T03:27:28;2.20;99.90
17701;DHT22;8969;48.576;12.580;2023-01-24T03:30:19;2.20;99.90
17701;DHT22;8969;48.576;12.580;2023-01-24T03:33:06;2.20;99.90
17701;DHT22;8969;48.576;12.580;2023-01-24T03:35:52;2.20;99.90
17701;DHT22;8969;48.576;12.580;2023-01-24T03:38:29;2.20;99.90
17701;DHT22;8969;48.576;12.580;2023-01-24T03:41:18;2.20;99.90
17701;DHT22;8969;48.576;12.580;2023-01-24T03:43:47;2.20;99.90
17701;DHT22;8969;48.576;12.580;2023-01-24T03:46:16;2.10;99.90
17701;DHT22;8969;48.576;12.580;2023-01-24T03:48:48;2.20;99.90
17701;DHT22;8969;48.576;12.580;2023-01-24T03:51:21;2.20;99.90
17701;DHT22;8969;48.576;12.580;2023-01-24T03:54:07;2.20;99.90
17701;DHT22;8969;48.576;12.580;2023-01-24T03:56:50;2.20;99.90
17701;DHT22;8969;48.576;12.580;2023-01-24T03:59:21;2.20;99.90
17701;DHT22;8969;48.576;12.580;2023-01-24T04:01:50;2.20;99.90
17701;DHT22;8969;48.576;12.580;2023-01-24T04:04:32;2.20;99.90
17701;DHT22;8969;48.576;12.580;2023-01-24T04:07:21;2.20;99.90
17701;DHT22;8969;48.576;12.580;2023-01-24T04:09:58;2.20;99.90
17701;DHT22;8969;48.576;12.580;2023-01-24T04:12:28;2.30;99.90
17701;DHT22;8969;48.576;12.580;2023-01-24T04:14:56;2.20;99.90
17701;DHT22;8969;48.576;12.580;2023-01-24T04:17:26;2.30;99.90
17701;DHT22;8969;48.576;12.580;2023-01-24T04:19:55;2.30;99.90
17701;DHT22;8969;48.576;12.580;2023-01-24T04:22:24;2.30;99.90
17701;DHT22;8969;48.576;12.580;2023-01-24T04:24:55;2.30;99.90
17701;DHT22;8969;48.576;12.580;2023-01-24T04:27:27;2.30;99.90
17701;DHT22;8969;48.576;12.580;2023-01-24T04:30:06;2.30;99.90
17701;DHT22;8969;48.576;12.580;2023-01-24T04:32:38;2.30;99.90
17701;DHT22;8969;48.576;12.580;2023-01-24T04:35:20;2.30;99.90
17701;DHT22;8969;48.576;12.580;2023-01-24T04:37:52;2.30;99.90
17701;DHT22;8969;48.576;12.580;2023-01-24T04:40:57;2.30;99.90
17701;DHT22;8969;48.576;12.580;2023-01-24T04:43:27;2.30;99.90
17701;DHT22;8969;48.576;12.580;2023-01-24T04:45:57;2.30;99.90
17701;DHT22;8969;48.576;12.580;2023-01-24T04:48:40;2.30;99.90
17701;DHT22;8969;48.576;12.580;2023-01-24T04:51:09;2.30;99.90
17701;DHT22;8969;48.576;12.580;2023-01-24T04:53:38;2.30;99.90
17701;DHT22;8969;48.576;12.580;2023-01-24T04:56:09;2.30;99.90
17701;DHT22;8969;48.576;12.580;2023-01-24T04:58:38;2.20;99.90
17701;DHT22;8969;48.576;12.580;2023-01-24T05:01:06;2.30;99.90
17701;DHT22;8969;48.576;12.580;2023-01-24T05:03:44;2.30;99.90
17701;DHT22;8969;48.576;12.580;2023-01-24T05:06:12;2.30;99.90
17701;DHT22;8969;48.576;12.580;2023-01-24T05:08:41;2.30;99.90
17701;DHT22;8969;48.576;12.580;2023-01-24T05:11:09;2.30;99.90
17701;DHT22;8969;48.576;12.580;2023-01-24T05:13:44;2.30;99.90
17701;DHT22;8969;48.576;12.580;2023-01-24T05:16:13;2.30;99.90
17701;DHT22;8969;48.576;12.580;2023-01-24T05:18:41;2.30;99.90
17701;DHT22;8969;48.576;12.580;2023-01-24T05:21:14;2.30;99.90
17701;DHT22;8969;48.576;12.580;2023-01-24T05:23:48;2.30;99.90
17701;DHT22;8969;48.576;12.580;2023-01-24T05:26:21;2.30;99.90
17701;DHT22;8969;48.576;12.580;2023-01-24T05:28:51;2.30;99.90
17701;DHT22;8969;48.576;12.580;2023-01-24T05:31:20;2.30;99.90
17701;DHT22;8969;48.576;12.580;2023-01-24T05:33:49;2.30;99.90
17701;DHT22;8969;48.576;12.580;2023-01-24T05:36:22;2.30;99.90
17701;DHT22;8969;48.576;12.580;2023-01-24T05:38:50;2.30;99.90
17701;DHT22;8969;48.576;12.580;2023-01-24T05:41:20;2.30;99.90
17701;DHT22;8969;48.576;12.580;2023-01-24T05:43:52;2.30;99.90
17701;DHT22;8969;48.576;12.580;2023-01-24T05:46:25;2.30;99.90
17701;DHT22;8969;48.576;12.580;2023-01-24T05:49:04;2.30;99.90
17701;DHT22;8969;48.576;12.580;2023-01-24T05:51:34;2.30;99.90
17701;DHT22;8969;48.576;12.580;2023-01-24T05:54:03;2.30;99.90
17701;DHT22;8969;48.576;12.580;2023-01-24T05:56:51;2.30;99.90
17701;DHT22;8969;48.576;12.580;2023-01-24T05:59:19;2.30;99.90
17701;DHT22;8969;48.576;12.580;2023-01-24T06:01:47;2.30;99.90
17701;DHT22;8969;48.576;12.580;2023-01-24T06:04:19;2.30;99.90
17701;DHT22;8969;48.576;12.580;2023-01-24T06:06:51;2.30;99.90
17701;DHT22;8969;48.576;12.580;2023-01-24T06:09:22;2.30;99.90
17701;DHT22;8969;48.576;12.580;2023-01-24T06:11:52;2.30;99.90
17701;DHT22;8969;48.576;12.580;2023-01-24T06:14:24;2.30;99.90
17701;DHT22;8969;48.576;12.580;2023-01-24T06:16:54;2.30;99.90
17701;DHT22;8969;48.576;12.580;2023-01-24T06:19:26;2.30;99.90
17701;DHT22;8969;48.576;12.580;2023-01-24T06:21:59;2.30;99.90
17701;DHT22;8969;48.576;12.580;2023-01-24T06:24:31;2.40;99.90
17701;DHT22;8969;48.576;12.580;2023-01-24T06:27:26;2.40;99.90
17701;DHT22;8969;48.576;12.580;2023-01-24T06:29:55;2.40;99.90
17701;DHT22;8969;48.576;12.580;2023-01-24T06:32:35;2.40;99.90
17701;DHT22;8969;48.576;12.580;2023-01-24T06:35:17;2.40;99.90
17701;DHT22;8969;48.576;12.580;2023-01-24T06:37:50;2.40;99.90
17701;DHT22;8969;48.576;12.580;2023-01-24T06:40:21;2.30;99.90
17701;DHT22;8969;48.576;12.580;2023-01-24T06:42:51;2.40;99.90
17701;DHT22;8969;48.576;12.580;2023-01-24T06:45:20;2.40;99.90
17701;DHT22;8969;48.576;12.580;2023-01-24T06:47:49;2.40;99.90
17701;DHT22;8969;48.576;12.580;2023-01-24T06:50:19;2.40;99.90
17701;DHT22;8969;48.576;12.580;2023-01-24T06:52:49;2.40;99.90
17701;DHT22;8969;48.576;12.580;2023-01-24T06:55:20;2.40;99.90
17701;DHT22;8969;48.576;12.580;2023-01-24T06:57:53;2.40;99.90
17701;DHT22;8969;48.576;12.580;2023-01-24T07:00:22;2.40;99.90
17701;DHT22;8969;48.576;12.580;2023-01-24T07:02:57;2.40;99.90
17701;DHT22;8969;48.576;12.580;2023-01-24T07:05:25;2.40;99.90
17701;DHT22;8969;48.576;12.580;2023-01-24T07:07:55;2.40;99.90
17701;DHT22;8969;48.576;12.580;2023-01-24T07:10:24;2.40;99.90
17701;DHT22;8969;48.576;12.580;2023-01-24T07:12:53;2.40;99.90
17701;DHT22;8969;48.576;12.580;2023-01-24T07:15:21;2.50;99.90
17701;DHT22;8969;48.576;12.580;2023-01-24T07:17:51;2.40;99.90
17701;DHT22;8969;48.576;12.580;2023-01-24T07:20:20;2.40;99.90
17701;DHT22;8969;48.576;12.580;2023-01-24T07:22:48;2.50;99.90
17701;DHT22;8969;48.576;12.580;2023-01-24T07:25:20;2.50;99.90
17701;DHT22;8969;48.576;12.580;2023-01-24T07:27:49;2.40;99.90
17701;DHT22;8969;48.576;12.580;2023-01-24T07:30:18;2.50;99.90
17701;DHT22;8969;48.576;12.580;2023-01-24T07:32:46;2.50;99.90
17701;DHT22;8969;48.576;12.580;2023-01-24T07:35:15;2.50;99.90
17701;DHT22;8969;48.576;12.580;2023-01-24T07:37:43;2.50;99.90
17701;DHT22;8969;48.576;12.580;2023-01-24T07:40:12;2.50;99.90
17701;DHT22;8969;48.576;12.580;2023-01-24T07:42:42;2.50;99.90
17701;DHT22;8969;48.576;12.580;2023-01-24T07:45:13;2.60;99.90
17701;DHT22;8969;48.576;12.580;2023-01-24T07:47:42;2.60;99.90
17701;DHT22;8969;48.576;12.580;2023-01-24T07:50:10;2.60;99.90
17701;DHT22;8969;48.576;12.580;2023-01-24T07:52:39;2.60;99.90
17701;DHT22;8969;48.576;12.580;2023-01-24T07:55:08;2.60;99.90
17701;DHT22;8969;48.576;12.580;2023-01-24T07:57:37;2.60;99.90
17701;DHT22;8969;48.576;12.580;2023-01-24T08:00:08;2.60;99.90
17701;DHT22;8969;48.576;12.580;2023-01-24T08:02:39;2.70;99.90
17701;DHT22;8969;48.576;12.580;2023-01-24T08:05:10;2.60;99.90
17701;DHT22;8969;48.576;12.580;2023-01-24T08:07:40;2.70;99.90
17701;DHT22;8969;48.576;12.580;2023-01-24T08:10:10;2.60;99.90
17701;DHT22;8969;48.576;12.580;2023-01-24T08:12:38;2.70;99.90
17701;DHT22;8969;48.576;12.580;2023-01-24T08:15:08;2.60;99.90
17701;DHT22;8969;48.576;12.580;2023-01-24T08:17:36;2.70;99.90
17701;DHT22;8969;48.576;12.580;2023-01-24T08:20:06;2.70;99.90
17701;DHT22;8969;48.576;12.580;2023-01-24T08:22:34;2.70;99.90
17701;DHT22;8969;48.576;12.580;2023-01-24T08:25:17;2.70;99.90
17701;DHT22;8969;48.576;12.580;2023-01-24T08:27:46;2.70;99.90
17701;DHT22;8969;48.576;12.580;2023-01-24T08:30:17;2.70;99.90
17701;DHT22;8969;48.576;12.580;2023-01-24T08:32:46;2.70;99.90
17701;DHT22;8969;48.576;12.580;2023-01-24T08:35:14;2.80;99.90
17701;DHT22;8969;48.576;12.580;2023-01-24T08:37:43;2.80;99.90
17701;DHT22;8969;48.576;12.580;2023-01-24T08:40:12;2.80;99.90
17701;DHT22;8969;48.576;12.580;2023-01-24T08:42:40;2.80;99.90
17701;DHT22;8969;48.576;12.580;2023-01-24T08:45:09;2.80;99.90
17701;DHT22;8969;48.576;12.580;2023-01-24T08:47:38;2.80;99.90
17701;DHT22;8969;48.576;12.580;2023-01-24T08:50:09;2.90;99.90
17701;DHT22;8969;48.576;12.580;2023-01-24T08:52:37;2.90;99.90
17701;DHT22;8969;48.576;12.580;2023-01-24T08:55:07;2.90;99.90
17701;DHT22;8969;48.576;12.580;2023-01-24T08:57:36;3.00;99.90
17701;DHT22;8969;48.576;12.580;2023-01-24T09:00:06;3.00;99.90
17701;DHT22;8969;48.576;12.580;2023-01-24T09:02:39;3.00;99.90
17701;DHT22;8969;48.576;12.580;2023-01-24T09:05:08;2.90;99.90
17701;DHT22;8969;48.576;12.580;2023-01-24T09:07:36;2.90;99.90
17701;DHT22;8969;48.576;12.580;2023-01-24T09:10:08;3.00;99.90
17701;DHT22;8969;48.576;12.580;2023-01-24T09:12:37;3.00;99.90
17701;DHT22;8969;48.576;12.580;2023-01-24T09:15:06;3.10;99.90
17701;DHT22;8969;48.576;12.580;2023-01-24T09:17:36;3.20;99.90
17701;DHT22;8969;48.576;12.580;2023-01-24T09:20:06;3.10;99.90
17701;DHT22;8969;48.576;12.580;2023-01-24T09:22:34;3.10;99.90
17701;DHT22;8969;48.576;12.580;2023-01-24T09:25:03;3.10;99.90
17701;DHT22;8969;48.576;12.580;2023-01-24T09:27:32;3.10;99.90
17701;DHT22;8969;48.576;12.580;2023-01-24T09:30:00;3.20;99.90
17701;DHT22;8969;48.576;12.580;2023-01-24T09:32:30;3.20;99.90
17701;DHT22;8969;48.576;12.580;2023-01-24T09:34:58;3.20;99.90
17701;DHT22;8969;48.576;12.580;2023-01-24T09:37:27;3.30;99.90
17701;DHT22;8969;48.576;12.580;2023-01-24T09:39:56;3.30;99.90
17701;DHT22;8969;48.576;12.580;2023-01-24T09:42:30;3.30;99.90
17701;DHT22;8969;48.576;12.580;2023-01-24T09:45:11;3.30;99.90
17701;DHT22;8969;48.576;12.580;2023-01-24T09:47:46;3.30;99.90
17701;DHT22;8969;48.576;12.580;2023-01-24T09:50:18;3.30;99.90
17701;DHT22;8969;48.576;12.580;2023-01-24T09:52:53;3.30;99.90
17701;DHT22;8969;48.576;12.580;2023-01-24T09:55:26;3.50;99.90
17701;DHT22;8969;48.576;12.580;2023-01-24T09:58:00;3.50;99.90
17701;DHT22;8969;48.576;12.580;2023-01-24T10:00:34;3.40;99.90
17701;DHT22;8969;48.576;12.580;2023-01-24T10:03:14;3.50;99.90
17701;DHT22;8969;48.576;12.580;2023-01-24T10:05:48;3.60;99.90
17701;DHT22;8969;48.576;12.580;2023-01-24T10:08:26;3.50;99.90
17701;DHT22;8969;48.576;12.580;2023-01-24T10:11:04;3.60;99.90
17701;DHT22;8969;48.576;12.580;2023-01-24T10:14:00;3.60;99.90
17701;DHT22;8969;48.576;12.580;2023-01-24T10:17:01;3.70;99.90
17701;DHT22;8969;48.576;12.580;2023-01-24T10:20:02;3.70;99.90
17701;DHT22;8969;48.576;12.580;2023-01-24T10:22:50;3.70;99.90
17701;DHT22;8969;48.576;12.580;2023-01-24T10:25:27;3.70;99.90
17701;DHT22;8969;48.576;12.580;2023-01-24T10:27:58;3.80;99.90
17701;DHT22;8969;48.576;12.580;2023-01-24T10:30:35;3.80;99.90
17701;DHT22;8969;48.576;12.580;2023-01-24T10:33:14;3.70;99.90
17701;DHT22;8969;48.576;12.580;2023-01-24T10:35:53;3.80;99.90
17701;DHT22;8969;48.576;12.580;2023-01-24T10:38:23;3.80;99.90
17701;DHT22;8969;48.576;12.580;2023-01-24T10:40:54;3.80;99.90
17701;DHT22;8969;48.576;12.580;2023-01-24T10:43:25;3.80;99.90
17701;DHT22;8969;48.576;12.580;2023-01-24T10:46:08;3.90;99.90
17701;DHT22;8969;48.576;12.580;2023-01-24T10:48:42;3.80;99.90
17701;DHT22;8969;48.576;12.580;2023-01-24T10:51:14;3.80;99.90
17701;DHT22;8969;48.576;12.580;2023-01-24T10:53:43;3.90;99.90
17701;DHT22;8969;48.576;12.580;2023-01-24T10:56:15;3.90;99.90
17701;DHT22;8969;48.576;12.580;2023-01-24T10:58:55;3.90;99.90
17701;DHT22;8969;48.576;12.580;2023-01-24T11:01:32;4.00;99.90
17701;DHT22;8969;48.576;12.580;2023-01-24T11:04:13;4.10;99.90
17701;DHT22;8969;48.576;12.580;2023-01-24T11:06:45;4.10;99.90
17701;DHT22;8969;48.576;12.580;2023-01-24T11:09:15;4.10;99.90
17701;DHT22;8969;48.576;12.580;2023-01-24T11:11:46;4.20;99.90
17701;DHT22;8969;48.576;12.580;2023-01-24T11:14:19;4.20;99.90
17701;DHT22;8969;48.576;12.580;2023-01-24T11:16:51;4.30;99.90
17701;DHT22;8969;48.576;12.580;2023-01-24T11:19:24;4.40;99.90
17701;DHT22;8969;48.576;12.580;2023-01-24T11:21:55;4.40;99.90
17701;DHT22;8969;48.576;12.580;2023-01-24T11:24:24;4.50;99.90
17701;DHT22;8969;48.576;12.580;2023-01-24T11:27:00;4.50;99.90
17701;DHT22;8969;48.576;12.580;2023-01-24T11:29:30;4.50;99.90
17701;DHT22;8969;48.576;12.580;2023-01-24T11:32:12;4.50;99.90
17701;DHT22;8969;48.576;12.580;2023-01-24T11:34:53;4.50;99.90
17701;DHT22;8969;48.576;12.580;2023-01-24T11:40:37;4.50;99.90
17701;DHT22;8969;48.576;12.580;2023-01-24T11:43:26;4.50;99.90
17701;DHT22;8969;48.576;12.580;2023-01-24T11:46:22;4.50;99.90
17701;DHT22;8969;48.576;12.580;2023-01-24T11:48:55;4.50;99.90
17701;DHT22;8969;48.576;12.580;2023-01-24T11:51:34;4.40;99.90
17701;DHT22;8969;48.576;12.580;2023-01-24T11:54:14;4.40;99.90
17701;DHT22;8969;48.576;12.580;2023-01-24T11:56:52;4.50;99.90
17701;DHT22;8969;48.576;12.580;2023-01-24T11:59:33;4.60;99.90
17701;DHT22;8969;48.576;12.580;2023-01-24T12:02:31;4.60;99.90
17701;DHT22;8969;48.576;12.580;2023-01-24T12:05:15;4.60;99.90
17701;DHT22;8969;48.576;12.580;2023-01-24T12:07:56;4.70;99.90
17701;DHT22;8969;48.576;12.580;2023-01-24T12:10:33;4.70;99.90
17701;DHT22;8969;48.576;12.580;2023-01-24T12:13:16;4.70;99.90
17701;DHT22;8969;48.576;12.580;2023-01-24T12:15:56;4.80;99.90
17701;DHT22;8969;48.576;12.580;2023-01-24T12:21:25;4.80;99.90
17701;DHT22;8969;48.576;12.580;2023-01-24T12:23:59;4.80;99.90
17701;DHT22;8969;48.576;12.580;2023-01-24T12:26:30;4.80;99.90
17701;DHT22;8969;48.576;12.580;2023-01-24T12:29:03;4.80;99.90
17701;DHT22;8969;48.576;12.580;2023-01-24T12:31:41;4.90;99.90
17701;DHT22;8969;48.576;12.580;2023-01-24T12:34:26;4.80;99.90
17701;DHT22;8969;48.576;12.580;2023-01-24T12:36:57;4.90;99.90
17701;DHT22;8969;48.576;12.580;2023-01-24T12:39:32;4.80;99.90
17701;DHT22;8969;48.576;12.580;2023-01-24T12:42:09;4.90;99.90
17701;DHT22;8969;48.576;12.580;2023-01-24T12:44:42;4.90;99.90
17701;DHT22;8969;48.576;12.580;2023-01-24T12:47:20;4.90;99.90
17701;DHT22;8969;48.576;12.580;2023-01-24T12:50:01;5.00;99.90
17701;DHT22;8969;48.576;12.580;2023-01-24T12:52:39;4.80;99.90
17701;DHT22;8969;48.576;12.580;2023-01-24T12:55:13;4.90;99.90
17701;DHT22;8969;48.576;12.580;2023-01-24T12:57:44;4.90;99.90
17701;DHT22;8969;48.576;12.580;2023-01-24T13:00:16;4.90;99.90
17701;DHT22;8969;48.576;12.580;2023-01-24T13:03:25;4.90;99.90
17701;DHT22;8969;48.576;12.580;2023-01-24T13:06:02;4.90;99.90
17701;DHT22;8969;48.576;12.580;2023-01-24T13:08:42;4.90;99.90
17701;DHT22;8969;48.576;12.580;2023-01-24T13:11:18;4.90;99.90
17701;DHT22;8969;48.576;12.580;2023-01-24T13:13:57;5.00;99.90
17701;DHT22;8969;48.576;12.580;2023-01-24T13:16:45;5.00;99.90
17701;DHT22;8969;48.576;12.580;2023-01-24T13:19:26;5.00;99.90
17701;DHT22;8969;48.576;12.580;2023-01-24T13:22:09;4.90;99.90
17701;DHT22;8969;48.576;12.580;2023-01-24T13:24:49;5.00;99.90
17701;DHT22;8969;48.576;12.580;2023-01-24T13:27:29;5.00;99.90
17701;DHT22;8969;48.576;12.580;2023-01-24T13:30:19;5.00;99.90
17701;DHT22;8969;48.576;12.580;2023-01-24T13:32:50;5.10;99.90
17701;DHT22;8969;48.576;12.580;2023-01-24T13:35:21;5.10;99.90
17701;DHT22;8969;48.576;12.580;2023-01-24T13:37:51;5.20;99.90
17701;DHT22;8969;48.576;12.580;2023-01-24T13:40:25;5.20;99.90
17701;DHT22;8969;48.576;12.580;2023-01-24T13:42:55;5.20;99.90
17701;DHT22;8969;48.576;12.580;2023-01-24T13:45:46;5.10;99.90
17701;DHT22;8969;48.576;12.580;2023-01-24T13:48:43;5.10;99.90
17701;DHT22;8969;48.576;12.580;2023-01-24T13:54:17;5.00;99.90
17701;DHT22;8969;48.576;12.580;2023-01-24T13:57:21;5.00;99.90
17701;DHT22;8969;48.576;12.580;2023-01-24T14:00:17;5.00;99.90
17701;DHT22;8969;48.576;12.580;2023-01-24T14:03:15;4.90;99.90
17701;DHT22;8969;48.576;12.580;2023-01-24T14:05:50;4.90;99.90
17701;DHT22;8969;48.576;12.580;2023-01-24T14:08:42;4.90;99.90
17701;DHT22;8969;48.576;12.580;2023-01-24T14:11:33;4.90;99.90
17701;DHT22;8969;48.576;12.580;2023-01-24T14:14:30;4.90;99.90
17701;DHT22;8969;48.576;12.580;2023-01-24T14:20:04;4.90;99.90
17701;DHT22;8969;48.576;12.580;2023-01-24T14:22:38;4.90;99.90
17701;DHT22;8969;48.576;12.580;2023-01-24T14:28:18;4.90;99.90
17701;DHT22;8969;48.576;12.580;2023-01-24T14:30:50;4.90;99.90
17701;DHT22;8969;48.576;12.580;2023-01-24T14:33:32;4.90;99.90
17701;DHT22;8969;48.576;12.580;2023-01-24T14:36:12;4.90;99.90
17701;DHT22;8969;48.576;12.580;2023-01-24T14:38:41;4.90;99.90
17701;DHT22;8969;48.576;12.580;2023-01-24T14:41:19;4.90;99.90
17701;DHT22;8969;48.576;12.580;2023-01-24T14:43:49;4.80;99.90
17701;DHT22;8969;48.576;12.580;2023-01-24T14:46:21;4.80;99.90
17701;DHT22;8969;48.576;12.580;2023-01-24T14:48:50;4.80;99.90
17701;DHT22;8969;48.576;12.580;2023-01-24T14:51:21;4.80;99.90
17701;DHT22;8969;48.576;12.580;2023-01-24T14:53:52;4.80;99.90
17701;DHT22;8969;48.576;12.580;2023-01-24T14:56:21;4.80;99.90
17701;DHT22;8969;48.576;12.580;2023-01-24T14:58:51;4.80;99.90
17701;DHT22;8969;48.576;12.580;2023-01-24T15:01:25;4.80;99.90
17701;DHT22;8969;48.576;12.580;2023-01-24T15:03:54;4.70;99.90
17701;DHT22;8969;48.576;12.580;2023-01-24T15:06:25;4.70;99.90
17701;DHT22;8969;48.576;12.580;2023-01-24T15:08:54;4.70;99.90
17701;DHT22;8969;48.576;12.580;2023-01-24T15:11:27;4.60;99.90
17701;DHT22;8969;48.576;12.580;2023-01-24T15:13:58;4.60;99.90
17701;DHT22;8969;48.576;12.580;2023-01-24T15:16:31;4.60;99.90
17701;DHT22;8969;48.576;12.580;2023-01-24T15:19:16;4.60;99.90
17701;DHT22;8969;48.576;12.580;2023-01-24T15:21:48;4.60;99.90
17701;DHT22;8969;48.576;12.580;2023-01-24T15:24:20;4.60;99.90
17701;DHT22;8969;48.576;12.580;2023-01-24T15:26:53;4.50;99.90
17701;DHT22;8969;48.576;12.580;2023-01-24T15:29:46;4.50;99.90
17701;DHT22;8969;48.576;12.580;2023-01-24T15:32:37;4.50;99.90
17701;DHT22;8969;48.576;12.580;2023-01-24T15:35:31;4.50;99.90
17701;DHT22;8969;48.576;12.580;2023-01-24T15:38:15;4.40;99.90
17701;DHT22;8969;48.576;12.580;2023-01-24T15:40:49;4.40;99.90
17701;DHT22;8969;48.576;12.580;2023-01-24T15:43:21;4.40;99.90
17701;DHT22;8969;48.576;12.580;2023-01-24T15:46:21;4.40;99.90
17701;DHT22;8969;48.576;12.580;2023-01-24T15:49:31;4.40;99.90
17701;DHT22;8969;48.576;12.580;2023-01-24T15:52:15;4.30;99.90
17701;DHT22;8969;48.576;12.580;2023-01-24T15:54:45;4.30;99.90
17701;DHT22;8969;48.576;12.580;2023-01-24T15:57:19;4.30;99.90
17701;DHT22;8969;48.576;12.580;2023-01-24T15:59:52;4.30;99.90
17701;DHT22;8969;48.576;12.580;2023-01-24T16:02:20;4.20;99.90
17701;DHT22;8969;48.576;12.580;2023-01-24T16:04:49;4.30;99.90
17701;DHT22;8969;48.576;12.580;2023-01-24T16:07:17;4.20;99.90
17701;DHT22;8969;48.576;12.580;2023-01-24T16:09:46;4.20;99.90
17701;DHT22;8969;48.576;12.580;2023-01-24T16:12:17;4.20;99.90
17701;DHT22;8969;48.576;12.580;2023-01-24T16:14:50;4.20;99.90
17701;DHT22;8969;48.576;12.580;2023-01-24T16:17:35;4.20;99.90
17701;DHT22;8969;48.576;12.580;2023-01-24T16:20:16;4.10;99.90
17701;DHT22;8969;48.576;12.580;2023-01-24T16:22:47;4.10;99.90
17701;DHT22;8969;48.576;12.580;2023-01-24T16:25:16;4.10;99.90
17701;DHT22;8969;48.576;12.580;2023-01-24T16:27:46;4.10;99.90
17701;DHT22;8969;48.576;12.580;2023-01-24T16:30:18;4.10;99.90
17701;DHT22;8969;48.576;12.580;2023-01-24T16:32:49;4.10;99.90
17701;DHT22;8969;48.576;12.580;2023-01-24T16:35:17;4.10;99.90
17701;DHT22;8969;48.576;12.580;2023-01-24T16:37:46;4.10;99.90
17701;DHT22;8969;48.576;12.580;2023-01-24T16:40:16;4.00;99.90
17701;DHT22;8969;48.576;12.580;2023-01-24T16:42:46;4.00;99.90
17701;DHT22;8969;48.576;12.580;2023-01-24T16:45:17;4.00;99.90